Terminal Aerodrome Forecast
Issued by NWS

Home | Current Version | Previous Version | Text Only | Print | Product List | Glossary On
Versions: 1 2 3 4 5 6 7 8 9 10 11 12 13 14 15 16 17 18 19 20 21 22 23 24 25 26 27 28 29
000
FTUS45 KPSR 310520
TAFSDL
TAF
KSDL 310520Z 3106/0106 17009KT P6SM VCSH BKN100 BKN200
     FM310800 VRB04KT P6SM SCT120 BKN250
     FM312200 23006KT P6SM SCT100 BKN250
     FM010400 18011KT P6SM VCTS BKN100CB BKN200=

USA.gov is the U.S. government's official web portal to all federal, state and local government web resources and services.